createdAt,value
2018-09-25T00:01:45.865Z,99.90
2018-09-25T00:04:19.502Z,99.90
2018-09-25T00:06:53.149Z,99.90
2018-09-25T00:09:26.654Z,99.90
2018-09-25T00:12:00.092Z,99.90
2018-09-25T00:14:33.714Z,99.90
2018-09-25T00:17:07.345Z,99.90
2018-09-25T00:19:40.945Z,99.90
2018-09-25T00:22:14.415Z,99.90
2018-09-25T00:24:48.193Z,99.90
2018-09-25T00:27:21.723Z,99.90
2018-09-25T00:29:55.395Z,99.90
2018-09-25T00:32:28.805Z,99.90
2018-09-25T00:35:02.262Z,99.90
2018-09-25T00:37:35.942Z,99.90
2018-09-25T00:40:09.666Z,99.90
2018-09-25T00:42:43.278Z,99.90
2018-09-25T00:45:16.949Z,99.90
2018-09-25T00:47:50.534Z,99.90
2018-09-25T00:50:24.210Z,99.90
2018-09-25T00:52:57.875Z,99.90
2018-09-25T00:55:31.350Z,99.90
2018-09-25T00:58:04.998Z,99.90
2018-09-25T01:00:38.755Z,99.90
2018-09-25T01:03:12.641Z,99.90
2018-09-25T01:05:46.137Z,99.90
2018-09-25T01:08:19.749Z,99.90
2018-09-25T01:10:53.422Z,99.90
2018-09-25T01:13:27.030Z,99.90
2018-09-25T01:16:00.794Z,99.90
2018-09-25T01:18:34.470Z,99.90
2018-09-25T01:21:08.106Z,99.90
2018-09-25T01:23:41.702Z,99.90
2018-09-25T01:26:15.382Z,99.90
2018-09-25T01:28:49.166Z,99.90
2018-09-25T01:31:23.790Z,99.90
2018-09-25T01:33:57.326Z,99.90
2018-09-25T01:36:30.787Z,99.90
2018-09-25T01:39:04.197Z,99.90
2018-09-25T01:41:38.651Z,99.90
2018-09-25T01:44:12.182Z,99.90
2018-09-25T01:46:45.642Z,99.90
2018-09-25T01:49:19.385Z,99.90
2018-09-25T01:51:52.971Z,99.90
2018-09-25T01:54:26.750Z,99.90
2018-09-25T01:57:00.256Z,99.90
2018-09-25T01:59:33.858Z,99.90
2018-09-25T02:02:07.413Z,99.90
2018-09-25T02:04:40.985Z,99.90
2018-09-25T02:07:14.371Z,99.90
2018-09-25T02:09:48.326Z,99.90
2018-09-25T02:12:21.867Z,99.90
2018-09-25T02:14:55.566Z,99.90
2018-09-25T02:17:29.185Z,99.90
2018-09-25T02:20:02.822Z,99.90
2018-09-25T02:22:36.378Z,99.90
2018-09-25T02:25:09.810Z,99.90
2018-09-25T02:27:43.295Z,99.90
2018-09-25T02:30:16.823Z,99.90
2018-09-25T02:32:50.594Z,99.90
2018-09-25T02:35:24.302Z,99.90
2018-09-25T02:37:58.081Z,99.90
2018-09-25T02:40:31.814Z,99.90
2018-09-25T02:43:05.426Z,99.90
2018-09-25T02:45:38.945Z,99.90
2018-09-25T02:48:12.358Z,99.90
2018-09-25T02:50:45.957Z,99.90
2018-09-25T02:53:19.565Z,99.90
2018-09-25T02:55:53.165Z,99.90
2018-09-25T02:58:26.827Z,99.90
2018-09-25T03:01:00.506Z,99.90
2018-09-25T03:03:34.055Z,99.90
2018-09-25T03:06:07.616Z,99.90
2018-09-25T03:08:41.094Z,99.90
2018-09-25T03:11:14.641Z,99.90
2018-09-25T03:13:48.253Z,99.90
2018-09-25T03:16:21.734Z,99.90
2018-09-25T03:18:55.442Z,99.90
2018-09-25T03:21:29.145Z,99.90
2018-09-25T03:24:02.772Z,99.90
2018-09-25T03:26:36.159Z,99.90
2018-09-25T03:29:09.860Z,99.90
2018-09-25T03:31:44.385Z,99.90
2018-09-25T03:34:18.057Z,99.90
2018-09-25T03:36:51.719Z,99.90
2018-09-25T03:39:25.354Z,99.90
2018-09-25T03:41:59.058Z,99.90
2018-09-25T03:44:32.761Z,99.90
2018-09-25T03:47:06.290Z,99.90
2018-09-25T03:49:40.000Z,99.90
2018-09-25T03:52:13.679Z,99.90
2018-09-25T03:54:47.333Z,99.90
2018-09-25T03:57:21.095Z,99.90
2018-09-25T03:59:54.753Z,99.90
2018-09-25T04:02:28.423Z,99.90
2018-09-25T04:05:01.982Z,99.90
2018-09-25T04:07:35.479Z,99.90
2018-09-25T04:10:08.990Z,99.90
2018-09-25T04:12:42.562Z,99.90
2018-09-25T04:15:16.100Z,99.90
2018-09-25T04:17:49.697Z,99.90
2018-09-25T04:20:23.339Z,99.90
2018-09-25T04:22:57.047Z,99.90
2018-09-25T04:25:30.565Z,99.90
2018-09-25T04:28:04.218Z,99.90
2018-09-25T04:30:37.725Z,99.90
2018-09-25T04:33:11.250Z,99.90
2018-09-25T04:35:44.982Z,99.90
2018-09-25T04:38:18.596Z,99.90
2018-09-25T04:40:52.226Z,99.90
2018-09-25T04:43:25.921Z,99.90
2018-09-25T04:45:59.611Z,99.90
2018-09-25T04:48:33.230Z,99.90
2018-09-25T04:51:06.993Z,99.90
2018-09-25T04:53:40.580Z,99.90
2018-09-25T04:56:14.174Z,99.90
2018-09-25T04:58:48.135Z,99.90
2018-09-25T05:01:22.046Z,99.90
2018-09-25T05:03:55.597Z,99.90
2018-09-25T05:06:29.288Z,99.90
2018-09-25T05:09:02.998Z,99.90
2018-09-25T05:11:36.578Z,99.90
2018-09-25T05:14:10.230Z,99.90
2018-09-25T05:16:43.837Z,99.90
2018-09-25T05:19:17.250Z,99.90
2018-09-25T05:21:50.603Z,99.90
2018-09-25T05:24:24.245Z,99.90
2018-09-25T05:26:57.962Z,99.90
2018-09-25T05:29:31.618Z,99.90
2018-09-25T05:32:05.283Z,99.90
2018-09-25T05:34:38.850Z,99.90
2018-09-25T05:37:12.406Z,99.90
2018-09-25T05:39:46.177Z,99.90
2018-09-25T05:42:19.889Z,99.90
2018-09-25T05:44:53.594Z,99.90
2018-09-25T05:47:27.081Z,99.90
2018-09-25T05:50:00.749Z,99.90
2018-09-25T05:52:34.358Z,99.90
2018-09-25T05:55:08.058Z,99.90
2018-09-25T05:57:41.676Z,99.90
2018-09-25T06:00:15.378Z,99.90
2018-09-25T06:02:48.882Z,99.90
2018-09-25T06:05:22.404Z,99.90
2018-09-25T06:07:55.766Z,99.90
2018-09-25T06:10:29.499Z,99.90
2018-09-25T06:13:03.074Z,99.90
2018-09-25T06:15:36.579Z,99.90
2018-09-25T06:18:10.161Z,99.90
2018-09-25T06:20:43.823Z,99.90
2018-09-25T06:23:17.174Z,99.90
2018-09-25T06:25:50.590Z,99.90
2018-09-25T06:28:24.107Z,99.90
2018-09-25T06:30:57.854Z,99.90
2018-09-25T06:33:31.514Z,99.90
2018-09-25T06:36:04.949Z,99.90
2018-09-25T06:38:38.550Z,99.90
2018-09-25T06:41:12.054Z,99.90
2018-09-25T06:43:45.740Z,99.90
2018-09-25T06:46:19.330Z,99.90
2018-09-25T06:48:52.865Z,99.90
2018-09-25T06:51:27.270Z,99.90
2018-09-25T06:54:00.726Z,99.90
2018-09-25T06:56:34.282Z,99.90
2018-09-25T06:59:07.770Z,99.90
2018-09-25T07:01:41.149Z,99.90
2018-09-25T07:04:14.698Z,99.90
2018-09-25T07:06:48.350Z,99.90
2018-09-25T07:09:21.929Z,99.90
2018-09-25T07:11:55.482Z,99.90
2018-09-25T07:14:29.226Z,99.90
2018-09-25T07:17:02.874Z,99.90
2018-09-25T07:19:36.502Z,99.90
2018-09-25T07:22:10.150Z,99.90
2018-09-25T07:24:43.940Z,99.90
2018-09-25T07:27:17.366Z,99.90
2018-09-25T07:29:50.919Z,99.90
2018-09-25T07:32:24.694Z,99.90
2018-09-25T07:34:58.318Z,99.90
2018-09-25T07:37:32.010Z,99.90
2018-09-25T07:40:05.529Z,99.90
2018-09-25T07:42:39.312Z,99.90
2018-09-25T07:45:12.856Z,99.90
2018-09-25T07:47:46.258Z,99.90
2018-09-25T07:50:19.890Z,99.90
2018-09-25T07:52:53.290Z,99.90
2018-09-25T07:55:27.009Z,99.90
2018-09-25T07:58:00.479Z,99.90
2018-09-25T08:00:34.014Z,99.90
2018-09-25T08:03:07.781Z,99.90
2018-09-25T08:05:41.417Z,99.90
2018-09-25T08:08:14.959Z,99.90
2018-09-25T08:10:48.474Z,99.90
2018-09-25T08:13:22.057Z,99.90
2018-09-25T08:15:55.642Z,99.90
2018-09-25T08:18:29.162Z,99.90
2018-09-25T08:21:02.673Z,99.90
2018-09-25T08:23:36.197Z,99.90
2018-09-25T08:26:09.942Z,99.90
2018-09-25T08:28:43.535Z,99.90
2018-09-25T08:31:16.966Z,99.90
2018-09-25T08:33:50.755Z,99.90
2018-09-25T08:36:24.132Z,99.90
2018-09-25T08:38:57.755Z,99.90
2018-09-25T08:41:32.410Z,99.90
2018-09-25T08:44:06.118Z,99.90
2018-09-25T08:46:39.706Z,99.90
2018-09-25T08:49:13.229Z,99.90
2018-09-25T08:51:47.610Z,99.90
2018-09-25T08:54:21.334Z,99.90
2018-09-25T08:56:54.815Z,99.90
2018-09-25T08:59:28.370Z,99.90
2018-09-25T09:02:01.957Z,99.90
2018-09-25T09:04:35.657Z,99.90
2018-09-25T09:07:09.263Z,99.90
2018-09-25T09:09:42.890Z,99.90
2018-09-25T09:12:16.376Z,99.90
2018-09-25T09:14:50.001Z,99.90
2018-09-25T09:17:23.457Z,99.90
2018-09-25T09:19:57.171Z,99.90
2018-09-25T09:22:30.806Z,99.90
2018-09-25T09:25:04.458Z,99.90
2018-09-25T09:27:37.854Z,99.90
2018-09-25T09:30:11.605Z,99.50
2018-09-25T09:32:45.262Z,99.90
2018-09-25T09:35:18.939Z,99.30
2018-09-25T09:37:52.546Z,96.60
2018-09-25T09:40:26.095Z,98.00
2018-09-25T09:42:59.686Z,97.10
2018-09-25T09:45:33.258Z,97.30
2018-09-25T09:48:06.741Z,96.30
2018-09-25T09:50:40.375Z,95.60
2018-09-25T09:53:14.042Z,94.10
2018-09-25T09:55:47.779Z,94.40
2018-09-25T09:58:21.342Z,92.90
2018-09-25T10:00:54.940Z,93.00
2018-09-25T10:03:28.597Z,92.10
2018-09-25T10:06:02.250Z,92.50
2018-09-25T10:08:35.790Z,94.50
2018-09-25T10:11:09.178Z,92.20
2018-09-25T10:13:42.798Z,93.80
2018-09-25T10:16:16.417Z,91.60
2018-09-25T10:18:49.934Z,90.50
2018-09-25T10:21:23.573Z,90.30
2018-09-25T10:23:56.950Z,89.10
2018-09-25T10:26:30.414Z,85.00
2018-09-25T10:29:03.874Z,86.60
2018-09-25T10:31:37.254Z,81.20
2018-09-25T10:34:10.881Z,80.40
2018-09-25T10:36:44.559Z,80.40
2018-09-25T10:39:18.193Z,79.90
2018-09-25T10:41:51.858Z,75.80
2018-09-25T10:44:25.336Z,71.10
2018-09-25T10:46:59.010Z,69.20
2018-09-25T10:49:32.729Z,73.00
2018-09-25T10:52:06.122Z,70.60
2018-09-25T10:54:39.591Z,67.00
2018-09-25T10:57:13.353Z,68.50
2018-09-25T10:59:46.985Z,68.50
2018-09-25T11:02:20.566Z,65.60
2018-09-25T11:04:54.182Z,66.00
2018-09-25T11:07:27.829Z,64.80
2018-09-25T11:10:01.192Z,65.60
2018-09-25T11:12:34.685Z,61.30
2018-09-25T11:15:08.193Z,63.60
2018-09-25T11:17:41.706Z,61.00
2018-09-25T11:20:15.206Z,61.30
2018-09-25T11:22:48.805Z,55.50
2018-09-25T11:25:22.528Z,57.30
2018-09-25T11:27:56.017Z,61.00
2018-09-25T11:30:29.550Z,59.20
2018-09-25T11:33:03.366Z,59.60
2018-09-25T11:35:37.015Z,59.10
2018-09-25T11:38:10.585Z,57.30
2018-09-25T11:40:44.196Z,59.40
2018-09-25T11:43:17.622Z,58.10
2018-09-25T11:45:51.238Z,58.20
2018-09-25T11:48:24.764Z,56.90
2018-09-25T11:50:58.541Z,57.60
2018-09-25T11:53:32.125Z,55.20
2018-09-25T11:56:05.888Z,55.10
2018-09-25T11:58:39.658Z,51.20
2018-09-25T12:01:13.439Z,51.40
2018-09-25T12:03:47.514Z,49.90
2018-09-25T12:06:21.158Z,49.20
2018-09-25T12:08:54.869Z,47.90
2018-09-25T12:11:28.261Z,48.60
2018-09-25T12:14:01.837Z,51.00
2018-09-25T12:16:35.549Z,50.30
2018-09-25T12:19:09.326Z,49.20
2018-09-25T12:21:42.907Z,50.70
2018-09-25T12:24:16.568Z,47.70
2018-09-25T12:26:50.122Z,50.50
2018-09-25T12:29:24.207Z,48.60
2018-09-25T12:31:57.880Z,49.50
2018-09-25T12:34:31.407Z,47.50
2018-09-25T12:37:04.910Z,44.00
2018-09-25T12:39:38.514Z,45.60
2018-09-25T12:42:12.275Z,47.10
2018-09-25T12:48:23.126Z,45.70
2018-09-25T12:50:56.574Z,44.70
2018-09-25T12:53:30.074Z,44.20
2018-09-25T12:56:03.612Z,43.20
2018-09-25T12:58:37.317Z,43.20
2018-09-25T13:01:10.942Z,43.10
2018-09-25T13:03:44.503Z,43.20
2018-09-25T13:06:17.978Z,42.40
2018-09-25T13:08:51.433Z,43.60
2018-09-25T13:11:25.122Z,42.80
2018-09-25T13:13:58.571Z,42.30
2018-09-25T13:16:32.179Z,43.20
2018-09-25T13:19:05.746Z,43.50
2018-09-25T13:21:39.210Z,42.80
2018-09-25T13:24:12.762Z,42.10
2018-09-25T13:26:46.346Z,42.90
2018-09-25T13:29:19.922Z,42.60
2018-09-25T13:31:53.430Z,42.80
2018-09-25T13:34:27.094Z,40.30
2018-09-25T13:37:00.747Z,43.20
2018-09-25T13:39:34.521Z,41.70
2018-09-25T13:42:08.049Z,41.00
2018-09-25T13:44:42.794Z,43.90
2018-09-25T13:47:16.418Z,41.00
2018-09-25T13:49:49.966Z,43.00
2018-09-25T13:52:23.335Z,41.60
2018-09-25T13:54:57.025Z,43.60
2018-09-25T13:57:30.590Z,43.40
2018-09-25T14:00:04.306Z,44.00
2018-09-25T14:02:37.871Z,43.10
2018-09-25T14:05:11.655Z,44.10
2018-09-25T14:07:45.229Z,44.10
2018-09-25T14:10:18.783Z,44.20
2018-09-25T14:12:52.222Z,43.30
2018-09-25T14:15:26.015Z,40.30
2018-09-25T14:17:59.501Z,42.60
2018-09-25T14:20:33.201Z,42.90
2018-09-25T14:23:06.934Z,42.10
2018-09-25T14:25:40.522Z,45.30
2018-09-25T14:28:14.108Z,43.80
2018-09-25T14:30:47.630Z,44.80
2018-09-25T14:33:21.162Z,44.20
2018-09-25T14:35:54.910Z,43.90
2018-09-25T14:38:28.426Z,44.50
2018-09-25T14:41:02.130Z,42.30
2018-09-25T14:43:35.738Z,42.70
2018-09-25T14:46:09.465Z,44.70
2018-09-25T14:48:43.123Z,43.30
2018-09-25T14:51:16.847Z,44.10
2018-09-25T14:53:50.598Z,44.50
2018-09-25T14:56:24.354Z,44.80
2018-09-25T14:58:57.919Z,44.30
2018-09-25T15:01:31.499Z,43.10
2018-09-25T15:04:05.247Z,44.30
2018-09-25T15:06:38.926Z,44.60
2018-09-25T15:09:13.756Z,44.50
2018-09-25T15:11:47.734Z,45.90
2018-09-25T15:14:21.326Z,45.40
2018-09-25T15:16:55.095Z,46.00
2018-09-25T15:19:28.573Z,45.20
2018-09-25T15:22:02.296Z,44.60
2018-09-25T15:24:35.730Z,45.30
2018-09-25T15:27:09.337Z,45.60
2018-09-25T15:29:42.950Z,45.40
2018-09-25T15:32:16.646Z,46.10
2018-09-25T15:34:50.263Z,47.10
2018-09-25T15:37:23.658Z,47.20
2018-09-25T15:39:57.069Z,47.20
2018-09-25T15:42:30.804Z,47.70
2018-09-25T15:45:04.357Z,48.40
2018-09-25T15:47:38.082Z,50.00
2018-09-25T15:50:11.715Z,50.90
2018-09-25T15:52:45.318Z,49.40
2018-09-25T15:55:18.898Z,50.10
2018-09-25T15:57:52.498Z,49.30
2018-09-25T16:00:25.962Z,50.60
2018-09-25T16:02:59.550Z,49.70
2018-09-25T16:05:33.174Z,51.90
2018-09-25T16:08:06.670Z,53.10
2018-09-25T16:10:40.187Z,54.40
2018-09-25T16:13:13.682Z,51.90
2018-09-25T16:15:47.393Z,53.10
2018-09-25T16:18:20.842Z,52.90
2018-09-25T16:20:54.208Z,54.60
2018-09-25T16:23:27.826Z,54.60
2018-09-25T16:26:01.313Z,55.10
2018-09-25T16:28:35.039Z,56.20
2018-09-25T16:31:08.798Z,55.80
2018-09-25T16:33:42.566Z,54.30
2018-09-25T16:36:16.112Z,55.00
2018-09-25T16:38:49.837Z,55.80
2018-09-25T16:41:23.520Z,57.30
2018-09-25T16:43:57.189Z,57.80
2018-09-25T16:46:30.778Z,58.80
2018-09-25T16:49:04.538Z,58.60
2018-09-25T16:51:38.186Z,60.40
2018-09-25T16:54:11.698Z,61.00
2018-09-25T16:56:45.363Z,61.40
2018-09-25T16:59:19.082Z,62.40
2018-09-25T17:01:52.638Z,63.50
2018-09-25T17:04:26.385Z,63.90
2018-09-25T17:06:59.914Z,63.20
2018-09-25T17:09:33.444Z,64.80
2018-09-25T17:12:06.831Z,64.80
2018-09-25T17:14:40.478Z,65.20
2018-09-25T17:17:14.207Z,66.40
2018-09-25T17:19:47.718Z,67.20
2018-09-25T17:22:21.150Z,68.00
2018-09-25T17:24:54.754Z,68.30
2018-09-25T17:27:28.461Z,70.40
2018-09-25T17:30:02.190Z,70.30
2018-09-25T17:32:35.769Z,71.70
2018-09-25T17:35:09.469Z,73.30
2018-09-25T17:37:43.014Z,75.20
2018-09-25T17:40:16.759Z,76.80
2018-09-25T17:42:50.366Z,77.30
2018-09-25T17:45:23.963Z,80.00
2018-09-25T17:47:57.526Z,81.70
2018-09-25T17:50:30.902Z,83.30
2018-09-25T17:53:04.486Z,84.40
2018-09-25T17:55:38.162Z,84.90
2018-09-25T17:58:12.022Z,86.60
2018-09-25T18:00:45.731Z,88.20
2018-09-25T18:03:19.287Z,88.80
2018-09-25T18:05:52.955Z,89.20
2018-09-25T18:08:26.549Z,90.10
2018-09-25T18:11:00.075Z,90.70
2018-09-25T18:13:33.532Z,91.50
2018-09-25T18:16:07.207Z,92.30
2018-09-25T18:18:40.717Z,92.40
2018-09-25T18:21:14.410Z,92.80
2018-09-25T18:23:48.045Z,93.30
2018-09-25T18:26:21.586Z,93.80
2018-09-25T18:28:55.402Z,99.90
2018-09-25T18:31:28.986Z,97.00
2018-09-25T18:34:02.440Z,96.00
2018-09-25T18:36:35.969Z,96.00
2018-09-25T18:39:10.979Z,96.50
2018-09-25T18:41:44.526Z,97.00
2018-09-25T18:44:18.161Z,97.10
2018-09-25T18:46:51.638Z,97.30
2018-09-25T18:49:25.402Z,97.60
2018-09-25T18:51:59.484Z,97.70
2018-09-25T18:54:33.063Z,97.90
2018-09-25T18:57:06.658Z,98.10
2018-09-25T18:59:40.380Z,98.10
2018-09-25T19:02:14.044Z,98.70
2018-09-25T19:04:47.621Z,99.40
2018-09-25T19:07:20.982Z,99.90
2018-09-25T19:09:54.491Z,99.90
2018-09-25T19:12:28.174Z,99.90
2018-09-25T19:15:01.801Z,99.80
2018-09-25T19:17:35.483Z,99.70
2018-09-25T19:20:09.134Z,99.50
2018-09-25T19:22:42.759Z,99.80
2018-09-25T19:25:16.078Z,99.50
2018-09-25T19:27:49.728Z,99.60
2018-09-25T19:30:23.105Z,99.60
2018-09-25T19:32:56.785Z,99.50
2018-09-25T19:35:30.494Z,99.40
2018-09-25T19:38:03.947Z,99.20
2018-09-25T19:40:37.426Z,99.50
2018-09-25T19:43:11.115Z,99.80
2018-09-25T19:45:44.834Z,99.60
2018-09-25T19:48:18.314Z,99.70
2018-09-25T19:50:52.000Z,99.80
2018-09-25T19:53:25.796Z,99.90
2018-09-25T19:55:59.382Z,99.90
2018-09-25T19:58:33.166Z,99.90
2018-09-25T20:01:06.686Z,99.90
2018-09-25T20:03:40.270Z,99.90
2018-09-25T20:06:13.999Z,99.90
2018-09-25T20:08:47.346Z,99.90
2018-09-25T20:11:22.066Z,99.90
2018-09-25T20:13:55.792Z,99.90
2018-09-25T20:16:29.418Z,99.90
2018-09-25T20:19:03.175Z,99.90
2018-09-25T20:21:37.782Z,99.90
2018-09-25T20:24:11.527Z,99.90
2018-09-25T20:26:45.123Z,99.90
2018-09-25T20:29:19.564Z,99.90
2018-09-25T20:31:53.083Z,99.90
2018-09-25T20:34:26.817Z,99.90
2018-09-25T20:37:00.266Z,99.90
2018-09-25T20:39:34.057Z,99.90
2018-09-25T20:42:07.683Z,99.90
2018-09-25T20:44:41.366Z,99.90
2018-09-25T20:47:14.934Z,99.90
2018-09-25T20:49:48.578Z,99.90
2018-09-25T20:52:22.194Z,99.90
2018-09-25T20:54:55.843Z,99.90
2018-09-25T20:57:29.430Z,99.90
2018-09-25T21:00:03.070Z,99.90
2018-09-25T21:02:36.616Z,99.90
2018-09-25T21:05:10.314Z,99.90
2018-09-25T21:07:43.998Z,99.90
2018-09-25T21:10:17.606Z,99.90
2018-09-25T21:12:51.082Z,99.90
2018-09-25T21:15:24.582Z,99.90
2018-09-25T21:17:57.990Z,99.90
2018-09-25T21:20:31.770Z,99.90
2018-09-25T21:23:05.354Z,99.90
2018-09-25T21:25:39.000Z,99.90
2018-09-25T21:28:12.359Z,99.90
2018-09-25T21:30:46.009Z,99.90
2018-09-25T21:33:19.579Z,99.90
2018-09-25T21:35:53.251Z,99.90
2018-09-25T21:38:26.812Z,99.90
2018-09-25T21:41:00.478Z,99.90
2018-09-25T21:43:33.965Z,99.90
2018-09-25T21:46:07.469Z,99.90
2018-09-25T21:48:40.963Z,99.90
2018-09-25T21:51:14.701Z,99.90
2018-09-25T21:53:48.134Z,99.90
2018-09-25T21:56:21.565Z,99.90
2018-09-25T21:58:55.026Z,99.90
2018-09-25T22:01:28.526Z,99.90
2018-09-25T22:04:02.256Z,99.90
2018-09-25T22:06:35.891Z,99.90
2018-09-25T22:09:11.882Z,99.90
2018-09-25T22:11:45.872Z,99.90
2018-09-25T22:14:19.481Z,99.90
2018-09-25T22:16:53.150Z,99.90
2018-09-25T22:19:26.737Z,99.90
2018-09-25T22:22:00.410Z,99.90
2018-09-25T22:24:33.967Z,99.90
2018-09-25T22:27:07.574Z,99.90
2018-09-25T22:29:41.206Z,99.90
2018-09-25T22:32:14.556Z,99.90
2018-09-25T22:34:48.346Z,99.90
2018-09-25T22:37:21.914Z,99.90
2018-09-25T22:39:55.653Z,99.90
2018-09-25T22:42:29.379Z,99.90
2018-09-25T22:45:02.937Z,99.90
2018-09-25T22:47:36.710Z,99.90
2018-09-25T22:50:17.347Z,99.90
2018-09-25T22:52:50.974Z,99.90
2018-09-25T22:55:24.509Z,99.90
2018-09-25T22:57:58.206Z,99.90
2018-09-25T23:00:31.934Z,99.90
2018-09-25T23:03:05.653Z,99.90
2018-09-25T23:05:39.171Z,99.90
2018-09-25T23:08:12.894Z,99.90
2018-09-25T23:10:46.626Z,99.90
2018-09-25T23:13:20.174Z,99.90
2018-09-25T23:15:53.962Z,99.90
2018-09-25T23:18:27.462Z,99.90
2018-09-25T23:21:00.870Z,99.90
2018-09-25T23:23:34.590Z,99.90
2018-09-25T23:26:08.314Z,99.90
2018-09-25T23:28:41.978Z,99.90
2018-09-25T23:31:15.542Z,99.90
2018-09-25T23:33:49.197Z,99.90
2018-09-25T23:36:22.970Z,99.90
2018-09-25T23:38:56.625Z,99.90
2018-09-25T23:41:32.014Z,99.90
2018-09-25T23:44:06.327Z,99.90
2018-09-25T23:46:40.019Z,99.90
2018-09-25T23:49:16.425Z,99.90
2018-09-25T23:52:05.567Z,99.90
2018-09-25T23:55:13.098Z,99.90
2018-09-25T23:57:47.443Z,99.90
